createdAt,value
2023-04-16T00:00:13.178Z,25.00
2023-04-16T00:01:13.228Z,25.00
2023-04-16T00:02:13.353Z,25.00
2023-04-16T00:03:13.594Z,0.00
2023-04-16T00:04:13.423Z,0.00
2023-04-16T00:05:13.418Z,0.00
2023-04-16T00:06:13.481Z,0.00
2023-04-16T00:07:13.535Z,0.00
2023-04-16T00:08:13.698Z,0.00
2023-04-16T00:09:13.660Z,6.37
2023-04-16T00:10:13.731Z,23.48
2023-04-16T00:11:13.788Z,25.00
2023-04-16T00:12:13.851Z,25.00
2023-04-16T00:13:13.931Z,25.00
2023-04-16T00:14:13.999Z,27.94
2023-04-16T00:15:14.053Z,25.57
2023-04-16T00:16:14.139Z,25.00
2023-04-16T00:17:14.160Z,27.51
2023-04-16T00:18:14.239Z,25.00
2023-04-16T00:19:14.285Z,25.48
2023-04-16T00:20:14.707Z,25.36
2023-04-16T00:21:14.703Z,25.58
2023-04-16T00:22:14.698Z,26.60
2023-04-16T00:23:15.187Z,25.56
2023-04-16T00:24:14.712Z,26.72
2023-04-16T00:25:14.701Z,26.24
2023-04-16T00:26:14.721Z,27.03
2023-04-16T00:27:14.794Z,25.00
2023-04-16T00:28:14.850Z,26.32
2023-04-16T00:29:14.953Z,30.54
2023-04-16T00:30:14.971Z,25.00
2023-04-16T00:31:15.003Z,24.64
2023-04-16T00:32:14.991Z,26.24
2023-04-16T00:33:15.045Z,29.53
2023-04-16T00:34:15.115Z,27.75
2023-04-16T00:35:15.173Z,25.12
2023-04-16T00:36:15.236Z,26.96
2023-04-16T00:37:15.660Z,25.00
2023-04-16T00:38:15.713Z,29.01
2023-04-16T00:39:15.708Z,25.59
2023-04-16T00:40:15.706Z,27.77
2023-04-16T00:41:15.706Z,30.39
2023-04-16T00:42:15.706Z,25.00
2023-04-16T00:43:15.730Z,28.04
2023-04-16T00:44:15.733Z,25.83
2023-04-16T00:45:15.819Z,28.84
2023-04-16T00:46:15.937Z,27.83
2023-04-16T00:47:15.953Z,26.44
2023-04-16T00:48:15.987Z,28.80
2023-04-16T00:49:16.069Z,27.15
2023-04-16T00:50:16.130Z,26.67
2023-04-16T00:51:16.188Z,26.84
2023-04-16T00:52:16.257Z,28.53
2023-04-16T00:53:16.328Z,30.50
2023-04-16T00:54:16.390Z,30.44
2023-04-16T00:55:16.449Z,29.20
2023-04-16T00:56:17.675Z,28.66
2023-04-16T00:57:16.572Z,28.56
2023-04-16T00:58:16.641Z,28.91
2023-04-16T00:59:16.705Z,28.01
2023-04-16T01:00:16.763Z,30.12
2023-04-16T01:01:16.944Z,25.90
2023-04-16T01:02:17.268Z,25.29
2023-04-16T01:03:17.122Z,28.92
2023-04-16T01:04:17.153Z,27.99
2023-04-16T01:05:17.076Z,27.33
2023-04-16T01:06:17.125Z,27.44
2023-04-16T01:07:17.195Z,31.90
2023-04-16T01:08:17.265Z,27.81
2023-04-16T01:09:17.335Z,29.98
2023-04-16T01:10:17.393Z,26.95
2023-04-16T01:11:17.454Z,27.06
2023-04-16T01:12:17.535Z,26.35
2023-04-16T01:13:17.587Z,27.65
2023-04-16T01:14:17.649Z,26.93
2023-04-16T01:15:17.728Z,26.82
2023-04-16T01:16:17.806Z,30.47
2023-04-16T01:17:17.868Z,28.29
2023-04-16T01:18:17.914Z,26.74
2023-04-16T01:19:17.968Z,26.73
2023-04-16T01:20:18.036Z,29.86
2023-04-16T01:21:18.084Z,27.93
2023-04-16T01:22:18.154Z,31.38
2023-04-16T01:23:18.212Z,31.39
2023-04-16T01:24:18.279Z,27.86
2023-04-16T01:25:18.337Z,28.68
2023-04-16T01:26:18.387Z,30.89
2023-04-16T01:27:18.455Z,29.40
2023-04-16T01:28:18.519Z,29.41
2023-04-16T01:29:18.591Z,30.08
2023-04-16T01:30:18.666Z,27.94
2023-04-16T01:31:18.751Z,30.57
2023-04-16T01:32:18.797Z,29.70
2023-04-16T01:33:18.863Z,30.00
2023-04-16T01:34:18.890Z,31.13
2023-04-16T01:35:19.713Z,31.09
2023-04-16T01:36:19.218Z,29.96
2023-04-16T01:37:19.105Z,31.31
2023-04-16T01:38:19.151Z,31.50
2023-04-16T01:39:19.205Z,29.43
2023-04-16T01:40:19.287Z,27.48
2023-04-16T01:41:19.343Z,32.50
2023-04-16T01:42:19.417Z,26.38
2023-04-16T01:43:19.478Z,26.62
2023-04-16T01:44:19.536Z,29.82
2023-04-16T01:45:19.605Z,29.30
2023-04-16T01:46:19.692Z,27.70
2023-04-16T01:47:19.761Z,32.33
2023-04-16T01:48:19.790Z,32.03
2023-04-16T01:49:19.871Z,28.44
2023-04-16T01:50:19.871Z,29.30
2023-04-16T01:51:19.927Z,29.11
2023-04-16T01:52:19.988Z,30.02
2023-04-16T01:53:20.048Z,29.21
2023-04-16T01:54:20.112Z,26.23
2023-04-16T01:55:20.199Z,29.28
2023-04-16T01:56:20.246Z,31.42
2023-04-16T01:57:20.311Z,27.77
2023-04-16T01:58:20.755Z,29.03
2023-04-16T01:59:20.753Z,31.92
2023-04-16T02:00:20.763Z,31.84
2023-04-16T02:01:20.796Z,30.35
2023-04-16T02:02:20.881Z,30.08
2023-04-16T02:03:20.903Z,30.10
2023-04-16T02:04:20.755Z,26.46
2023-04-16T02:05:20.866Z,28.24
2023-04-16T02:06:20.908Z,29.75
2023-04-16T02:07:20.948Z,32.64
2023-04-16T02:08:21.026Z,30.48
2023-04-16T02:09:21.077Z,32.64
2023-04-16T02:10:21.137Z,31.47
2023-04-16T02:11:21.199Z,31.43
2023-04-16T02:12:21.259Z,30.82
2023-04-16T02:13:21.320Z,26.82
2023-04-16T02:14:21.756Z,31.40
2023-04-16T02:15:21.755Z,29.25
2023-04-16T02:16:21.783Z,32.33
2023-04-16T02:17:21.861Z,31.02
2023-04-16T02:18:21.758Z,29.73
2023-04-16T02:19:21.755Z,26.94
2023-04-16T02:20:21.767Z,29.44
2023-04-16T02:21:21.870Z,26.25
2023-04-16T02:22:21.901Z,29.29
2023-04-16T02:23:21.956Z,31.50
2023-04-16T02:24:22.728Z,29.65
2023-04-16T02:25:22.090Z,28.03
2023-04-16T02:26:22.156Z,28.39
2023-04-16T02:27:22.216Z,29.26
2023-04-16T02:28:22.274Z,27.50
2023-04-16T02:29:22.344Z,28.72
2023-04-16T02:30:22.411Z,28.60
2023-04-16T02:31:22.538Z,28.79
2023-04-16T02:32:22.546Z,29.43
2023-04-16T02:33:22.599Z,29.40
2023-04-16T02:34:22.664Z,28.27
2023-04-16T02:35:22.770Z,28.80
2023-04-16T02:36:22.785Z,26.86
2023-04-16T02:37:22.845Z,30.05
2023-04-16T02:38:22.879Z,29.77
2023-04-16T02:39:22.953Z,28.00
2023-04-16T02:40:22.995Z,26.86
2023-04-16T02:41:23.062Z,28.35
2023-04-16T02:42:23.132Z,29.28
2023-04-16T02:43:23.176Z,31.26
2023-04-16T02:44:23.236Z,29.76
2023-04-16T02:45:23.303Z,29.33
2023-04-16T02:46:23.462Z,28.21
2023-04-16T02:47:23.396Z,28.08
2023-04-16T02:48:23.430Z,25.48
2023-04-16T02:49:23.481Z,26.41
2023-04-16T02:50:23.540Z,31.54
2023-04-16T02:51:23.614Z,30.78
2023-04-16T02:52:23.674Z,28.51
2023-04-16T02:53:23.762Z,28.52
2023-04-16T02:54:23.774Z,27.53
2023-04-16T02:55:23.847Z,29.34
2023-04-16T02:56:23.906Z,28.58
2023-04-16T02:57:23.982Z,30.56
2023-04-16T02:58:24.055Z,27.55
2023-04-16T02:59:24.107Z,27.59
2023-04-16T03:00:24.166Z,28.37
2023-04-16T03:01:24.295Z,30.22
2023-04-16T03:02:25.383Z,29.96
2023-04-16T03:03:24.437Z,27.12
2023-04-16T03:04:24.502Z,29.16
2023-04-16T03:05:24.490Z,29.28
2023-04-16T03:06:24.547Z,28.76
2023-04-16T03:07:24.627Z,30.50
2023-04-16T03:08:24.678Z,27.82
2023-04-16T03:09:24.781Z,27.26
2023-04-16T03:10:24.835Z,29.91
2023-04-16T03:11:24.886Z,30.28
2023-04-16T03:12:24.954Z,28.22
2023-04-16T03:13:25.008Z,31.43
2023-04-16T03:14:25.057Z,32.24
2023-04-16T03:15:25.096Z,27.67
2023-04-16T03:16:25.158Z,28.42
2023-04-16T03:17:25.261Z,29.80
2023-04-16T03:18:25.268Z,29.15
2023-04-16T03:19:25.310Z,29.93
2023-04-16T03:20:25.384Z,30.36
2023-04-16T03:21:25.423Z,29.45
2023-04-16T03:22:25.488Z,30.39
2023-04-16T03:23:25.572Z,28.41
2023-04-16T03:24:28.372Z,31.30
2023-04-16T03:25:26.255Z,32.46
2023-04-16T03:26:25.609Z,33.15
2023-04-16T03:27:25.623Z,32.43
2023-04-16T03:28:25.588Z,33.02
2023-04-16T03:29:25.576Z,33.74
2023-04-16T03:30:25.571Z,32.71
2023-04-16T03:31:25.581Z,30.28
2023-04-16T03:32:25.562Z,32.34
2023-04-16T03:33:25.554Z,31.64
2023-04-16T03:34:25.565Z,33.07
2023-04-16T03:35:28.251Z,30.96
2023-04-16T03:36:25.535Z,33.99
2023-04-16T03:37:25.546Z,33.86
2023-04-16T03:38:25.535Z,33.05
2023-04-16T03:39:25.517Z,30.94
2023-04-16T03:40:28.277Z,31.21
2023-04-16T03:41:25.507Z,31.46
2023-04-16T03:42:25.488Z,31.44
2023-04-16T03:43:25.505Z,31.35
2023-04-16T03:44:25.481Z,32.95
2023-04-16T03:45:25.468Z,32.01
2023-04-16T03:46:25.504Z,31.55
2023-04-16T03:47:25.485Z,31.02
2023-04-16T03:48:28.765Z,31.79
2023-04-16T03:49:25.445Z,31.99
2023-04-16T03:50:25.442Z,31.89
2023-04-16T03:51:25.431Z,32.66
2023-04-16T03:52:25.427Z,34.02
2023-04-16T03:53:25.418Z,30.69
2023-04-16T03:54:25.409Z,31.95
2023-04-16T03:55:25.439Z,31.56
2023-04-16T03:56:25.431Z,29.85
2023-04-16T03:57:25.392Z,29.20
2023-04-16T03:58:25.394Z,32.04
2023-04-16T03:59:25.385Z,32.23
2023-04-16T04:00:25.368Z,31.68
2023-04-16T04:01:25.362Z,29.12
2023-04-16T04:02:25.516Z,31.55
2023-04-16T04:03:25.616Z,31.41
2023-04-16T04:04:25.480Z,31.82
2023-04-16T04:05:25.343Z,31.80
2023-04-16T04:06:25.368Z,29.96
2023-04-16T04:07:25.420Z,31.12
2023-04-16T04:08:25.501Z,31.41
2023-04-16T04:09:25.563Z,31.91
2023-04-16T04:10:25.626Z,28.69
2023-04-16T04:11:25.696Z,28.96
2023-04-16T04:12:26.186Z,30.56
2023-04-16T04:13:26.141Z,28.61
2023-04-16T04:14:26.144Z,31.74
2023-04-16T04:15:26.174Z,32.74
2023-04-16T04:16:27.041Z,30.12
2023-04-16T04:17:26.138Z,28.34
2023-04-16T04:18:26.154Z,29.27
2023-04-16T04:19:27.012Z,30.41
2023-04-16T04:20:27.010Z,30.48
2023-04-16T04:21:27.269Z,29.23
2023-04-16T04:22:26.362Z,30.31
2023-04-16T04:23:26.425Z,28.73
2023-04-16T04:24:27.273Z,30.87
2023-04-16T04:25:26.551Z,25.00
2023-04-16T04:26:27.291Z,32.70
2023-04-16T04:27:27.015Z,28.12
2023-04-16T04:28:27.042Z,30.74
2023-04-16T04:29:27.010Z,30.42
2023-04-16T04:30:27.010Z,29.67
2023-04-16T04:31:27.126Z,27.90
2023-04-16T04:32:27.028Z,26.32
2023-04-16T04:33:27.038Z,31.02
2023-04-16T04:34:27.080Z,30.95
2023-04-16T04:35:27.148Z,29.54
2023-04-16T04:36:27.194Z,29.67
2023-04-16T04:37:27.253Z,29.01
2023-04-16T04:38:27.288Z,27.17
2023-04-16T04:39:27.348Z,29.83
2023-04-16T04:40:27.456Z,29.09
2023-04-16T04:41:27.453Z,28.46
2023-04-16T04:42:27.513Z,32.09
2023-04-16T04:43:27.575Z,27.89
2023-04-16T04:44:27.653Z,31.31
2023-04-16T04:45:29.605Z,29.88
2023-04-16T04:46:28.274Z,30.14
2023-04-16T04:47:27.689Z,30.40
2023-04-16T04:48:27.718Z,30.41
2023-04-16T04:49:27.669Z,30.14
2023-04-16T04:50:27.661Z,29.69
2023-04-16T04:51:28.275Z,29.32
2023-04-16T04:52:27.639Z,28.96
2023-04-16T04:53:27.640Z,30.01
2023-04-16T04:54:27.783Z,31.18
2023-04-16T04:55:27.624Z,28.90
2023-04-16T04:56:27.616Z,29.93
2023-04-16T04:57:27.625Z,29.20
2023-04-16T04:58:27.604Z,30.96
2023-04-16T04:59:27.604Z,26.97
2023-04-16T05:00:28.306Z,27.96
2023-04-16T05:01:27.701Z,29.60
2023-04-16T05:02:27.871Z,29.58
2023-04-16T05:03:27.885Z,30.66
2023-04-16T05:04:27.855Z,30.76
2023-04-16T05:05:28.785Z,30.37
2023-04-16T05:06:29.533Z,30.92
2023-04-16T05:07:27.959Z,30.88
2023-04-16T05:08:27.977Z,32.11
2023-04-16T05:09:30.802Z,28.06
2023-04-16T05:10:28.295Z,28.35
2023-04-16T05:11:27.936Z,28.77
2023-04-16T05:12:27.932Z,28.94
2023-04-16T05:13:27.944Z,30.09
2023-04-16T05:14:27.916Z,32.23
2023-04-16T05:15:27.911Z,29.33
2023-04-16T05:16:27.964Z,32.07
2023-04-16T05:17:27.933Z,34.26
2023-04-16T05:18:27.895Z,28.47
2023-04-16T05:19:27.882Z,29.34
2023-04-16T05:20:27.880Z,30.17
2023-04-16T05:21:27.866Z,30.90
2023-04-16T05:22:27.862Z,29.07
2023-04-16T05:23:27.863Z,29.79
2023-04-16T05:24:27.850Z,30.90
2023-04-16T05:25:27.853Z,29.30
2023-04-16T05:26:27.850Z,26.84
2023-04-16T05:27:27.845Z,27.70
2023-04-16T05:28:27.835Z,27.97
2023-04-16T05:29:30.803Z,31.11
2023-04-16T05:30:27.808Z,31.24
2023-04-16T05:31:28.307Z,31.24
2023-04-16T05:32:27.907Z,30.45
2023-04-16T05:33:27.791Z,28.18
2023-04-16T05:34:27.794Z,28.46
2023-04-16T05:35:27.807Z,30.66
2023-04-16T05:36:27.769Z,28.60
2023-04-16T05:37:27.765Z,32.96
2023-04-16T05:38:27.771Z,29.01
2023-04-16T05:39:27.758Z,27.20
2023-04-16T05:40:27.814Z,29.91
2023-04-16T05:41:28.299Z,30.33
2023-04-16T05:42:27.734Z,30.13
2023-04-16T05:43:27.731Z,28.82
2023-04-16T05:44:27.762Z,28.15
2023-04-16T05:45:28.250Z,32.23
2023-04-16T05:46:27.722Z,28.42
2023-04-16T05:47:28.312Z,29.02
2023-04-16T05:48:27.799Z,30.39
2023-04-16T05:49:27.838Z,33.08
2023-04-16T05:50:27.899Z,31.18
2023-04-16T05:51:27.939Z,31.35
2023-04-16T05:52:28.806Z,28.98
2023-04-16T05:53:28.061Z,28.11
2023-04-16T05:54:28.067Z,32.91
2023-04-16T05:55:28.799Z,32.60
2023-04-16T05:56:28.180Z,31.29
2023-04-16T05:57:28.243Z,30.53
2023-04-16T05:58:28.293Z,34.98
2023-04-16T05:59:28.354Z,30.51
2023-04-16T06:00:28.429Z,29.89
2023-04-16T06:01:28.504Z,33.98
2023-04-16T06:02:28.681Z,32.69
2023-04-16T06:03:28.934Z,30.22
2023-04-16T06:04:28.704Z,33.38
2023-04-16T06:05:28.775Z,33.01
2023-04-16T06:06:28.795Z,31.08
2023-04-16T06:07:28.857Z,30.22
2023-04-16T06:08:28.934Z,32.78
2023-04-16T06:09:29.002Z,30.35
2023-04-16T06:10:29.116Z,30.69
2023-04-16T06:11:29.114Z,30.62
2023-04-16T06:12:29.175Z,32.84
2023-04-16T06:13:29.256Z,31.85
2023-04-16T06:14:29.299Z,33.58
2023-04-16T06:15:29.390Z,32.85
2023-04-16T06:16:29.463Z,30.03
2023-04-16T06:17:30.322Z,30.51
2023-04-16T06:18:29.564Z,33.54
2023-04-16T06:19:29.621Z,32.62
2023-04-16T06:20:29.712Z,30.91
2023-04-16T06:21:29.741Z,31.92
2023-04-16T06:22:32.320Z,30.78
2023-04-16T06:23:32.336Z,36.30
2023-04-16T06:24:29.815Z,36.49
2023-04-16T06:25:29.795Z,36.12
2023-04-16T06:26:29.781Z,36.41
2023-04-16T06:27:29.782Z,34.40
2023-04-16T06:28:29.783Z,33.88
2023-04-16T06:29:40.665Z,32.90
2023-04-16T06:30:29.757Z,33.28
2023-04-16T06:31:29.784Z,34.25
2023-04-16T06:32:29.755Z,34.85
2023-04-16T06:33:29.738Z,33.89
2023-04-16T06:34:30.312Z,34.38
2023-04-16T06:35:29.722Z,37.05
2023-04-16T06:36:29.748Z,33.90
2023-04-16T06:37:32.324Z,31.56
2023-04-16T06:38:29.830Z,31.86
2023-04-16T06:39:29.815Z,32.28
2023-04-16T06:40:29.691Z,31.76
2023-04-16T06:41:29.689Z,32.83
2023-04-16T06:42:29.680Z,33.08
2023-04-16T06:43:29.671Z,33.81
2023-04-16T06:44:29.668Z,33.34
2023-04-16T06:45:29.658Z,34.15
2023-04-16T06:46:29.690Z,36.49
2023-04-16T06:47:29.764Z,36.26
2023-04-16T06:48:29.651Z,33.17
2023-04-16T06:49:29.630Z,32.82
2023-04-16T06:50:29.645Z,33.67
2023-04-16T06:51:29.622Z,32.91
2023-04-16T06:52:29.633Z,35.04
2023-04-16T06:53:29.617Z,31.64
2023-04-16T06:54:29.619Z,34.22
2023-04-16T06:55:29.603Z,33.76
2023-04-16T06:56:29.589Z,34.82
2023-04-16T06:57:30.326Z,37.40
2023-04-16T06:58:29.579Z,33.45
2023-04-16T06:59:32.337Z,35.40
2023-04-16T07:00:29.661Z,35.75
2023-04-16T07:01:29.729Z,36.93
2023-04-16T07:02:29.754Z,33.74
2023-04-16T07:03:29.771Z,35.02
2023-04-16T07:04:29.669Z,35.95
2023-04-16T07:05:29.617Z,33.70
2023-04-16T07:06:29.590Z,38.69
2023-04-16T07:07:32.339Z,35.19
2023-04-16T07:08:29.597Z,35.37
2023-04-16T07:09:29.563Z,35.85
2023-04-16T07:10:29.561Z,36.13
2023-04-16T07:11:29.552Z,35.19
2023-04-16T07:12:29.537Z,33.94
2023-04-16T07:13:29.840Z,35.02
2023-04-16T07:14:29.533Z,37.91
2023-04-16T07:15:29.517Z,34.86
2023-04-16T07:16:29.534Z,34.07
2023-04-16T07:17:29.552Z,37.26
2023-04-16T07:18:29.519Z,33.68
2023-04-16T07:19:29.490Z,33.42
2023-04-16T07:20:29.488Z,31.63
2023-04-16T07:21:29.473Z,30.50
2023-04-16T07:22:32.336Z,32.43
2023-04-16T07:23:29.467Z,32.52
2023-04-16T07:24:29.491Z,32.83
2023-04-16T07:25:29.462Z,34.36
2023-04-16T07:26:29.452Z,32.57
2023-04-16T07:27:29.437Z,32.03
2023-04-16T07:28:29.433Z,35.11
2023-04-16T07:29:29.423Z,33.92
2023-04-16T07:30:29.415Z,29.98
2023-04-16T07:31:29.457Z,33.51
2023-04-16T07:32:29.429Z,30.18
2023-04-16T07:33:29.401Z,29.55
2023-04-16T07:34:29.388Z,28.49
2023-04-16T07:35:29.384Z,28.99
2023-04-16T07:36:29.373Z,29.19
2023-04-16T07:37:29.401Z,29.94
2023-04-16T07:38:30.342Z,32.91
2023-04-16T07:39:29.355Z,32.71
2023-04-16T07:40:29.381Z,31.54
2023-04-16T07:41:29.351Z,30.05
2023-04-16T07:42:29.333Z,30.79
2023-04-16T07:43:29.334Z,31.44
2023-04-16T07:44:32.184Z,30.91
2023-04-16T07:45:29.319Z,35.79
2023-04-16T07:47:28.330Z,33.32
2023-04-16T07:48:29.306Z,33.32
2023-04-16T07:49:29.297Z,34.49
2023-04-16T07:50:29.287Z,33.55
2023-04-16T07:51:29.302Z,31.42
2023-04-16T07:52:29.269Z,33.93
2023-04-16T07:53:32.116Z,33.68
2023-04-16T07:54:29.344Z,37.52
2023-04-16T07:55:29.264Z,31.57
2023-04-16T07:56:29.273Z,34.34
2023-04-16T07:57:29.237Z,33.36
2023-04-16T07:58:29.245Z,33.52
2023-04-16T07:59:29.549Z,32.80
2023-04-16T08:00:29.216Z,32.65
2023-04-16T08:01:29.206Z,28.90
2023-04-16T08:02:29.295Z,34.66
2023-04-16T08:03:29.508Z,32.77
2023-04-16T08:04:29.397Z,33.65
2023-04-16T08:05:29.265Z,28.69
2023-04-16T08:06:29.846Z,32.27
2023-04-16T08:07:29.179Z,32.51
2023-04-16T08:08:29.154Z,29.92
2023-04-16T08:09:29.168Z,32.69
2023-04-16T08:10:29.158Z,33.61
2023-04-16T08:11:29.137Z,34.23
2023-04-16T08:12:29.157Z,32.75
2023-04-16T08:13:30.048Z,33.36
2023-04-16T08:14:29.370Z,32.83
2023-04-16T08:15:29.564Z,31.62
2023-04-16T08:16:30.350Z,32.96
2023-04-16T08:17:29.629Z,33.93
2023-04-16T08:18:29.620Z,33.12
2023-04-16T08:19:29.679Z,29.30
2023-04-16T08:20:29.740Z,35.20
2023-04-16T08:21:32.353Z,29.87
2023-04-16T08:22:29.811Z,35.38
2023-04-16T08:23:29.789Z,36.46
2023-04-16T08:24:29.776Z,34.08
2023-04-16T08:25:29.775Z,35.17
2023-04-16T08:26:29.762Z,33.64
2023-04-16T08:27:29.753Z,33.60
2023-04-16T08:28:29.783Z,34.79
2023-04-16T08:29:29.738Z,34.51
2023-04-16T08:30:29.734Z,36.50
2023-04-16T08:31:32.500Z,34.64
2023-04-16T08:32:30.373Z,34.86
2023-04-16T08:33:29.756Z,35.48
2023-04-16T08:34:29.711Z,35.63
2023-04-16T08:35:29.702Z,32.60
2023-04-16T08:36:29.697Z,35.20
2023-04-16T08:37:29.710Z,35.38
2023-04-16T08:38:29.686Z,37.39
2023-04-16T08:39:30.368Z,38.09
2023-04-16T08:40:29.685Z,32.86
2023-04-16T08:41:29.667Z,32.19
2023-04-16T08:42:29.674Z,33.57
2023-04-16T08:43:29.658Z,34.89
2023-04-16T08:44:29.670Z,32.84
2023-04-16T08:45:29.652Z,36.58
2023-04-16T08:46:29.740Z,35.63
2023-04-16T08:47:29.816Z,36.61
2023-04-16T08:48:29.831Z,37.06
2023-04-16T08:49:33.005Z,35.15
2023-04-16T08:50:29.885Z,35.34
2023-04-16T08:51:29.892Z,35.70
2023-04-16T08:52:29.879Z,35.03
2023-04-16T08:53:29.873Z,36.43
2023-04-16T08:54:29.872Z,36.19
2023-04-16T08:55:30.378Z,36.76
2023-04-16T08:56:29.841Z,35.37
2023-04-16T08:57:29.883Z,35.66
2023-04-16T08:58:29.830Z,35.32
2023-04-16T08:59:29.832Z,38.08
2023-04-16T09:00:29.838Z,38.86
2023-04-16T09:01:29.866Z,37.99
2023-04-16T09:02:29.977Z,38.54
2023-04-16T09:03:29.960Z,37.10
2023-04-16T09:04:30.044Z,39.01
2023-04-16T09:05:29.798Z,34.36
2023-04-16T09:06:29.786Z,37.20
2023-04-16T09:07:29.778Z,38.73
2023-04-16T09:08:29.765Z,37.15
2023-04-16T09:09:29.762Z,36.03
2023-04-16T09:10:29.753Z,37.01
2023-04-16T09:11:29.778Z,37.43
2023-04-16T09:12:29.842Z,39.52
2023-04-16T09:13:29.900Z,37.38
2023-04-16T09:14:29.949Z,33.60
2023-04-16T09:15:30.014Z,37.69
2023-04-16T09:16:30.098Z,40.43
2023-04-16T09:17:30.159Z,38.12
2023-04-16T09:18:30.177Z,39.23
2023-04-16T09:19:33.012Z,35.16
2023-04-16T09:20:30.224Z,41.81
2023-04-16T09:21:30.227Z,42.60
2023-04-16T09:22:30.211Z,38.85
2023-04-16T09:23:30.220Z,37.69
2023-04-16T09:24:30.198Z,41.60
2023-04-16T09:25:30.196Z,38.26
2023-04-16T09:26:30.187Z,37.57
2023-04-16T09:27:30.182Z,38.06
2023-04-16T09:28:30.172Z,36.68
2023-04-16T09:29:30.163Z,37.18
2023-04-16T09:30:30.165Z,39.98
2023-04-16T09:31:30.176Z,39.12
2023-04-16T09:32:30.187Z,39.94
2023-04-16T09:33:30.131Z,38.59
2023-04-16T09:34:30.124Z,40.69
2023-04-16T09:35:30.120Z,38.59
2023-04-16T09:36:30.128Z,40.03
2023-04-16T09:37:30.107Z,38.53
2023-04-16T09:38:30.098Z,41.64
2023-04-16T09:39:30.881Z,41.02
2023-04-16T09:40:30.090Z,38.23
2023-04-16T09:41:30.082Z,39.11
2023-04-16T09:42:30.064Z,40.62
2023-04-16T09:43:30.063Z,39.78
2023-04-16T09:44:30.060Z,41.27
2023-04-16T09:45:30.131Z,37.55
2023-04-16T09:46:30.309Z,36.77
2023-04-16T09:47:30.203Z,41.07
2023-04-16T09:48:30.272Z,38.34
2023-04-16T09:49:30.308Z,43.75
2023-04-16T09:50:30.359Z,40.63
2023-04-16T09:51:30.406Z,41.92
2023-04-16T09:52:30.462Z,41.71
2023-04-16T09:53:30.509Z,38.25
2023-04-16T09:54:30.564Z,44.00
2023-04-16T09:55:30.628Z,40.11
2023-04-16T09:56:30.682Z,41.29
2023-04-16T09:57:30.737Z,42.75
2023-04-16T09:58:30.797Z,41.52
2023-04-16T09:59:30.838Z,43.41
2023-04-16T10:00:30.891Z,42.78
2023-04-16T10:01:31.056Z,41.75
2023-04-16T10:02:30.990Z,44.02
2023-04-16T10:03:31.155Z,46.95
2023-04-16T10:04:30.999Z,45.24
2023-04-16T10:05:30.913Z,45.30
2023-04-16T10:06:30.906Z,42.51
2023-04-16T10:07:30.912Z,41.90
2023-04-16T10:08:30.897Z,45.11
2023-04-16T10:09:30.894Z,42.24
2023-04-16T10:10:30.878Z,43.78
2023-04-16T10:11:30.872Z,42.44
2023-04-16T10:12:30.869Z,38.95
2023-04-16T10:13:30.864Z,43.12
2023-04-16T10:14:30.856Z,43.99
2023-04-16T10:15:30.857Z,45.71
2023-04-16T10:16:30.888Z,41.37
2023-04-16T10:17:30.861Z,40.95
2023-04-16T10:18:31.398Z,42.14
2023-04-16T10:19:30.827Z,43.40
2023-04-16T10:20:30.843Z,40.05
2023-04-16T10:21:30.820Z,46.22
2023-04-16T10:22:30.813Z,43.46
2023-04-16T10:23:31.402Z,41.22
2023-04-16T10:24:30.794Z,42.62
2023-04-16T10:25:30.842Z,43.32
2023-04-16T10:26:30.876Z,44.74
2023-04-16T10:27:30.928Z,43.96
2023-04-16T10:28:30.997Z,42.49
2023-04-16T10:29:32.128Z,43.18
2023-04-16T10:30:31.099Z,41.07
2023-04-16T10:31:31.177Z,42.43
2023-04-16T10:32:31.240Z,46.00
2023-04-16T10:33:31.242Z,44.10
2023-04-16T10:34:31.303Z,44.74
2023-04-16T10:35:31.344Z,43.85
2023-04-16T10:36:31.405Z,43.39
2023-04-16T10:37:32.426Z,41.28
2023-04-16T10:38:31.481Z,44.76
2023-04-16T10:39:31.509Z,44.57
2023-04-16T10:40:31.569Z,44.54
2023-04-16T10:41:31.700Z,43.70
2023-04-16T10:42:31.655Z,40.23
2023-04-16T10:43:31.708Z,43.53
2023-04-16T10:44:32.123Z,44.52
2023-04-16T10:45:32.128Z,43.17
2023-04-16T10:46:32.172Z,40.86
2023-04-16T10:47:32.153Z,44.50
2023-04-16T10:48:42.417Z,42.35
2023-04-16T10:49:32.126Z,42.78
2023-04-16T10:50:32.126Z,43.71
2023-04-16T10:51:32.161Z,43.85
2023-04-16T10:52:32.145Z,44.26
2023-04-16T10:53:32.132Z,42.83
2023-04-16T10:54:32.122Z,47.13
2023-04-16T10:55:32.416Z,42.52
2023-04-16T10:56:32.129Z,44.69
2023-04-16T10:57:32.124Z,43.21
2023-04-16T10:58:32.125Z,42.25
2023-04-16T10:59:32.149Z,44.49
2023-04-16T11:00:32.129Z,45.90
2023-04-16T11:01:32.158Z,45.82
2023-04-16T11:02:32.377Z,46.28
2023-04-16T11:03:32.293Z,44.01
2023-04-16T11:04:32.256Z,43.51
2023-04-16T11:05:32.132Z,44.85
2023-04-16T11:06:32.265Z,45.68
2023-04-16T11:07:32.124Z,43.83
2023-04-16T11:08:32.151Z,44.77
2023-04-16T11:09:32.415Z,41.76
2023-04-16T11:10:32.119Z,42.75
2023-04-16T11:11:32.119Z,47.10
2023-04-16T11:12:32.124Z,43.48
2023-04-16T11:13:32.117Z,46.34
2023-04-16T11:14:32.125Z,42.26
2023-04-16T11:15:34.427Z,42.90
2023-04-16T11:16:32.460Z,48.07
2023-04-16T11:17:32.149Z,48.42
2023-04-16T11:18:32.122Z,47.00
2023-04-16T11:19:32.118Z,44.19
2023-04-16T11:20:32.130Z,42.22
2023-04-16T11:21:32.121Z,43.61
2023-04-16T11:22:32.126Z,47.22
2023-04-16T11:23:32.128Z,44.48
2023-04-16T11:24:32.142Z,41.98
2023-04-16T11:25:32.429Z,41.72
2023-04-16T11:26:32.121Z,44.89
2023-04-16T11:27:32.126Z,40.41
2023-04-16T11:28:32.125Z,40.99
2023-04-16T11:29:32.121Z,40.64
2023-04-16T11:30:34.494Z,43.75
2023-04-16T11:31:32.173Z,49.49
2023-04-16T11:32:32.165Z,43.18
2023-04-16T11:33:32.118Z,41.92
2023-04-16T11:34:32.078Z,41.32
2023-04-16T11:35:32.076Z,45.28
2023-04-16T11:36:31.710Z,42.93
2023-04-16T11:37:32.118Z,46.34
2023-04-16T11:38:31.702Z,41.65
2023-04-16T11:39:31.700Z,41.75
2023-04-16T11:40:32.447Z,42.98
2023-04-16T11:41:31.680Z,41.84
2023-04-16T11:42:34.455Z,43.08
2023-04-16T11:43:31.665Z,43.36
2023-04-16T11:44:31.673Z,44.03
2023-04-16T11:45:34.419Z,44.52
2023-04-16T11:46:31.688Z,43.37
2023-04-16T11:47:32.250Z,43.89
2023-04-16T11:48:31.642Z,43.39
2023-04-16T11:49:31.627Z,45.18
2023-04-16T11:50:31.636Z,42.32
2023-04-16T11:51:34.427Z,44.52
2023-04-16T11:52:31.695Z,44.68
2023-04-16T11:53:31.606Z,45.16
2023-04-16T11:54:31.603Z,43.75
2023-04-16T11:55:31.591Z,45.77
2023-04-16T11:56:34.456Z,42.10
2023-04-16T11:57:31.602Z,44.77
2023-04-16T11:58:31.613Z,44.68
2023-04-16T11:59:31.573Z,45.22
2023-04-16T12:00:31.566Z,42.84
2023-04-16T12:01:31.628Z,42.96
2023-04-16T12:02:31.664Z,42.35
2023-04-16T12:03:31.730Z,43.88
2023-04-16T12:04:31.602Z,47.75
2023-04-16T12:05:31.531Z,43.40
2023-04-16T12:06:34.433Z,41.37
2023-04-16T12:07:31.516Z,41.68
2023-04-16T12:08:32.185Z,41.91
2023-04-16T12:09:31.498Z,44.29
2023-04-16T12:10:31.487Z,45.11
2023-04-16T12:11:31.478Z,47.20
2023-04-16T12:12:32.046Z,41.98
2023-04-16T12:13:31.510Z,50.07
2023-04-16T12:14:34.435Z,44.86
2023-04-16T12:15:31.464Z,45.02
2023-04-16T12:16:31.469Z,45.26
2023-04-16T12:17:31.523Z,45.21
2023-04-16T12:18:31.473Z,46.23
2023-04-16T12:19:32.132Z,46.57
2023-04-16T12:20:31.425Z,46.38
2023-04-16T12:21:31.433Z,44.41
2023-04-16T12:22:31.424Z,45.88
2023-04-16T12:23:31.401Z,41.42
2023-04-16T12:24:31.389Z,43.62
2023-04-16T12:25:31.405Z,40.16
2023-04-16T12:26:31.377Z,45.00
2023-04-16T12:27:31.374Z,43.44
2023-04-16T12:28:31.476Z,42.11
2023-04-16T12:29:31.363Z,44.97
2023-04-16T12:30:31.434Z,39.46
2023-04-16T12:31:31.356Z,40.96
2023-04-16T12:32:31.366Z,46.32
2023-04-16T12:33:31.362Z,41.96
2023-04-16T12:34:49.220Z,45.98
2023-04-16T12:35:31.330Z,46.74
2023-04-16T12:36:31.322Z,47.68
2023-04-16T12:37:31.319Z,47.66
2023-04-16T12:38:31.333Z,49.27
2023-04-16T12:39:31.300Z,48.97
2023-04-16T12:40:31.299Z,50.29
2023-04-16T12:41:31.294Z,45.92
2023-04-16T12:42:38.131Z,45.91
2023-04-16T12:43:31.300Z,46.50
2023-04-16T12:44:31.298Z,47.25
2023-04-16T12:45:32.121Z,47.26
2023-04-16T12:46:32.138Z,47.78
2023-04-16T12:47:31.391Z,42.92
2023-04-16T12:48:32.120Z,47.06
2023-04-16T12:49:31.234Z,44.92
2023-04-16T12:50:38.119Z,44.30
2023-04-16T12:51:31.223Z,44.87
2023-04-16T12:52:31.219Z,45.25
2023-04-16T12:53:31.210Z,46.65